sensor_id;sensor_type;location;lat;lon;timestamp;pressure;altitude;pressure_sealevel;temperature;humidity
84617;BME280;74846;51.126;16.944;2024-03-06T00:00:03;100636.56;;;5.96;69.35
84617;BME280;74846;51.126;16.944;2024-03-06T00:02:31;100638.52;;;5.95;69.49
84617;BME280;74846;51.126;16.944;2024-03-06T00:04:58;100635.08;;;5.94;69.58
84617;BME280;74846;51.126;16.944;2024-03-06T00:07:27;100638.45;;;5.97;69.57
84617;BME280;74846;51.126;16.944;2024-03-06T00:09:54;100639.48;;;5.98;69.43
84617;BME280;74846;51.126;16.944;2024-03-06T00:12:21;100635.16;;;5.97;69.15
84617;BME280;74846;51.126;16.944;2024-03-06T00:14:48;100640.63;;;5.95;69.14
84617;BME280;74846;51.126;16.944;2024-03-06T00:17:15;100640.27;;;5.95;69.07
84617;BME280;74846;51.126;16.944;2024-03-06T00:19:43;100638.83;;;5.96;69.11
84617;BME280;74846;51.126;16.944;2024-03-06T00:22:09;100641.98;;;5.96;69.10
84617;BME280;74846;51.126;16.944;2024-03-06T00:24:36;100646.52;;;5.96;69.16
84617;BME280;74846;51.126;16.944;2024-03-06T00:27:03;100644.46;;;5.95;69.10
84617;BME280;74846;51.126;16.944;2024-03-06T00:29:31;100646.48;;;5.91;69.18
84617;BME280;74846;51.126;16.944;2024-03-06T00:31:59;100648.98;;;5.84;69.11
84617;BME280;74846;51.126;16.944;2024-03-06T00:34:26;100646.04;;;5.77;69.79
84617;BME280;74846;51.126;16.944;2024-03-06T00:36:57;100640.16;;;5.65;70.27
84617;BME280;74846;51.126;16.944;2024-03-06T00:39:24;100649.01;;;5.72;70.31
84617;BME280;74846;51.126;16.944;2024-03-06T00:41:51;100645.30;;;5.73;70.35
84617;BME280;74846;51.126;16.944;2024-03-06T00:44:17;100649.25;;;5.81;70.16
84617;BME280;74846;51.126;16.944;2024-03-06T00:46:44;100651.98;;;5.83;70.07
84617;BME280;74846;51.126;16.944;2024-03-06T00:49:11;100653.70;;;5.84;69.66
84617;BME280;74846;51.126;16.944;2024-03-06T00:51:38;100646.18;;;5.73;69.87
84617;BME280;74846;51.126;16.944;2024-03-06T00:54:14;100654.71;;;5.73;70.04
84617;BME280;74846;51.126;16.944;2024-03-06T00:56:41;100655.32;;;5.71;69.83
84617;BME280;74846;51.126;16.944;2024-03-06T00:59:08;100655.30;;;5.66;70.05
84617;BME280;74846;51.126;16.944;2024-03-06T01:01:34;100657.51;;;5.68;70.14
84617;BME280;74846;51.126;16.944;2024-03-06T01:04:01;100660.51;;;5.61;70.62
84617;BME280;74846;51.126;16.944;2024-03-06T01:06:28;100664.56;;;5.54;70.78
84617;BME280;74846;51.126;16.944;2024-03-06T01:08:56;100659.88;;;5.48;70.72
84617;BME280;74846;51.126;16.944;2024-03-06T01:11:40;100663.73;;;5.48;70.69
84617;BME280;74846;51.126;16.944;2024-03-06T01:14:07;100666.13;;;5.48;70.68
84617;BME280;74846;51.126;16.944;2024-03-06T01:16:34;100664.47;;;5.46;70.74
84617;BME280;74846;51.126;16.944;2024-03-06T01:19:01;100667.51;;;5.44;70.73
84617;BME280;74846;51.126;16.944;2024-03-06T01:21:27;100671.61;;;5.41;70.65
84617;BME280;74846;51.126;16.944;2024-03-06T01:23:55;100675.83;;;5.39;70.62
84617;BME280;74846;51.126;16.944;2024-03-06T01:26:22;100676.14;;;5.41;70.51
84617;BME280;74846;51.126;16.944;2024-03-06T01:28:48;100676.73;;;5.44;70.84
84617;BME280;74846;51.126;16.944;2024-03-06T01:31:15;100678.86;;;5.43;71.25
84617;BME280;74846;51.126;16.944;2024-03-06T01:33:42;100678.05;;;5.47;70.95
84617;BME280;74846;51.126;16.944;2024-03-06T01:36:08;100667.97;;;5.40;71.19
84617;BME280;74846;51.126;16.944;2024-03-06T01:38:35;100681.80;;;5.50;71.38
84617;BME280;74846;51.126;16.944;2024-03-06T01:41:02;100683.54;;;5.49;71.59
84617;BME280;74846;51.126;16.944;2024-03-06T01:43:37;100680.89;;;5.51;71.28
84617;BME280;74846;51.126;16.944;2024-03-06T01:46:05;100686.70;;;5.50;71.10
84617;BME280;74846;51.126;16.944;2024-03-06T01:48:35;100685.33;;;5.48;71.33
84617;BME280;74846;51.126;16.944;2024-03-06T01:51:02;100685.80;;;5.44;71.14
84617;BME280;74846;51.126;16.944;2024-03-06T01:53:31;100686.94;;;5.35;71.35
84617;BME280;74846;51.126;16.944;2024-03-06T01:56:03;100684.50;;;5.29;71.17
84617;BME280;74846;51.126;16.944;2024-03-06T01:58:31;100675.63;;;5.17;71.69
84617;BME280;74846;51.126;16.944;2024-03-06T02:00:58;100685.06;;;5.10;72.23
84617;BME280;74846;51.126;16.944;2024-03-06T02:03:25;100686.73;;;5.07;72.11
84617;BME280;74846;51.126;16.944;2024-03-06T02:05:52;100681.39;;;5.05;72.31
84617;BME280;74846;51.126;16.944;2024-03-06T02:08:20;100686.27;;;5.05;72.33
84617;BME280;74846;51.126;16.944;2024-03-06T02:10:47;100687.16;;;5.04;72.39
84617;BME280;74846;51.126;16.944;2024-03-06T02:13:14;100684.83;;;5.00;72.41
84617;BME280;74846;51.126;16.944;2024-03-06T02:15:41;100684.12;;;4.94;72.39
84617;BME280;74846;51.126;16.944;2024-03-06T02:18:08;100684.73;;;4.85;72.50
84617;BME280;74846;51.126;16.944;2024-03-06T02:20:38;100684.84;;;4.75;72.91
84617;BME280;74846;51.126;16.944;2024-03-06T02:23:06;100679.66;;;4.66;72.68
84617;BME280;74846;51.126;16.944;2024-03-06T02:25:34;100681.77;;;4.59;72.77
84617;BME280;74846;51.126;16.944;2024-03-06T02:28:00;100685.55;;;4.55;72.89
84617;BME280;74846;51.126;16.944;2024-03-06T02:30:27;100686.20;;;4.50;73.06
84617;BME280;74846;51.126;16.944;2024-03-06T02:32:54;100687.36;;;4.45;73.28
84617;BME280;74846;51.126;16.944;2024-03-06T02:35:21;100686.42;;;4.35;73.40
84617;BME280;74846;51.126;16.944;2024-03-06T02:37:47;100688.56;;;4.26;73.61
84617;BME280;74846;51.126;16.944;2024-03-06T02:40:14;100688.04;;;4.20;73.92
84617;BME280;74846;51.126;16.944;2024-03-06T02:42:41;100692.85;;;4.14;73.60
84617;BME280;74846;51.126;16.944;2024-03-06T02:45:08;100693.42;;;4.05;73.42
84617;BME280;74846;51.126;16.944;2024-03-06T02:47:35;100693.95;;;3.98;74.08
84617;BME280;74846;51.126;16.944;2024-03-06T02:50:02;100693.70;;;3.86;73.72
84617;BME280;74846;51.126;16.944;2024-03-06T02:52:29;100683.74;;;3.66;74.28
84617;BME280;74846;51.126;16.944;2024-03-06T02:54:56;100695.69;;;3.61;74.14
84617;BME280;74846;51.126;16.944;2024-03-06T02:57:23;100695.57;;;3.58;74.43
84617;BME280;74846;51.126;16.944;2024-03-06T02:59:49;100698.49;;;3.60;74.58
84617;BME280;74846;51.126;16.944;2024-03-06T03:02:16;100704.77;;;3.52;74.72
84617;BME280;74846;51.126;16.944;2024-03-06T03:04:43;100702.59;;;3.40;74.95
84617;BME280;74846;51.126;16.944;2024-03-06T03:07:10;100701.63;;;3.35;75.03
84617;BME280;74846;51.126;16.944;2024-03-06T03:09:36;100702.69;;;3.36;74.96
84617;BME280;74846;51.126;16.944;2024-03-06T03:12:05;100704.00;;;3.30;75.04
84617;BME280;74846;51.126;16.944;2024-03-06T03:14:32;100712.94;;;3.27;75.12
84617;BME280;74846;51.126;16.944;2024-03-06T03:17:00;100706.58;;;3.15;75.37
84617;BME280;74846;51.126;16.944;2024-03-06T03:19:27;100716.17;;;3.13;75.68
84617;BME280;74846;51.126;16.944;2024-03-06T03:21:53;100717.66;;;3.08;75.07
84617;BME280;74846;51.126;16.944;2024-03-06T03:24:20;100720.21;;;3.02;75.20
84617;BME280;74846;51.126;16.944;2024-03-06T03:26:47;100712.48;;;2.90;75.43
84617;BME280;74846;51.126;16.944;2024-03-06T03:29:14;100722.85;;;2.92;75.81
84617;BME280;74846;51.126;16.944;2024-03-06T03:31:41;100726.23;;;2.88;75.95
84617;BME280;74846;51.126;16.944;2024-03-06T03:34:08;100728.23;;;2.83;75.92
84617;BME280;74846;51.126;16.944;2024-03-06T03:36:40;100733.70;;;2.78;76.01
84617;BME280;74846;51.126;16.944;2024-03-06T03:39:09;100732.93;;;2.73;76.40
84617;BME280;74846;51.126;16.944;2024-03-06T03:41:46;100740.27;;;2.72;76.56
84617;BME280;74846;51.126;16.944;2024-03-06T03:44:17;100739.16;;;2.64;76.62
84617;BME280;74846;51.126;16.944;2024-03-06T03:46:45;100738.30;;;2.65;76.41
84617;BME280;74846;51.126;16.944;2024-03-06T03:49:12;100738.45;;;2.56;76.25
84617;BME280;74846;51.126;16.944;2024-03-06T03:51:39;100742.56;;;2.49;76.93
84617;BME280;74846;51.126;16.944;2024-03-06T03:54:06;100749.63;;;2.42;76.73
84617;BME280;74846;51.126;16.944;2024-03-06T03:56:34;100749.36;;;2.37;76.37
84617;BME280;74846;51.126;16.944;2024-03-06T03:59:01;100749.10;;;2.32;76.39
84617;BME280;74846;51.126;16.944;2024-03-06T04:01:29;100752.05;;;2.32;76.93
84617;BME280;74846;51.126;16.944;2024-03-06T04:03:55;100750.71;;;2.29;76.88
84617;BME280;74846;51.126;16.944;2024-03-06T04:06:22;100743.69;;;2.23;77.05
84617;BME280;74846;51.126;16.944;2024-03-06T04:08:50;100754.25;;;2.24;77.25
84617;BME280;74846;51.126;16.944;2024-03-06T04:11:17;100756.52;;;2.24;77.51
84617;BME280;74846;51.126;16.944;2024-03-06T04:13:44;100754.41;;;2.25;77.35
84617;BME280;74846;51.126;16.944;2024-03-06T04:16:16;100754.04;;;2.27;77.02
84617;BME280;74846;51.126;16.944;2024-03-06T04:18:44;100758.64;;;2.32;76.75
84617;BME280;74846;51.126;16.944;2024-03-06T04:21:11;100754.61;;;2.35;76.88
84617;BME280;74846;51.126;16.944;2024-03-06T04:23:38;100753.26;;;2.32;76.18
84617;BME280;74846;51.126;16.944;2024-03-06T04:26:05;100756.01;;;2.23;76.27
84617;BME280;74846;51.126;16.944;2024-03-06T04:28:32;100761.00;;;2.15;76.70
84617;BME280;74846;51.126;16.944;2024-03-06T04:30:59;100756.70;;;2.02;76.59
84617;BME280;74846;51.126;16.944;2024-03-06T04:33:26;100768.30;;;2.01;76.27
84617;BME280;74846;51.126;16.944;2024-03-06T04:35:52;100772.57;;;1.95;76.59
84617;BME280;74846;51.126;16.944;2024-03-06T04:38:19;100770.61;;;1.86;77.20
84617;BME280;74846;51.126;16.944;2024-03-06T04:40:46;100772.73;;;1.85;77.00
84617;BME280;74846;51.126;16.944;2024-03-06T04:43:13;100773.95;;;1.84;76.76
84617;BME280;74846;51.126;16.944;2024-03-06T04:45:39;100777.08;;;1.83;77.31
84617;BME280;74846;51.126;16.944;2024-03-06T04:48:07;100775.59;;;1.79;77.24
84617;BME280;74846;51.126;16.944;2024-03-06T04:50:34;100778.95;;;1.74;77.25
84617;BME280;74846;51.126;16.944;2024-03-06T04:53:01;100785.38;;;1.73;77.32
84617;BME280;74846;51.126;16.944;2024-03-06T04:55:27;100786.42;;;1.72;76.89
84617;BME280;74846;51.126;16.944;2024-03-06T04:57:54;100789.91;;;1.69;77.51
84617;BME280;74846;51.126;16.944;2024-03-06T05:00:21;100792.08;;;1.64;76.84
84617;BME280;74846;51.126;16.944;2024-03-06T05:02:47;100792.73;;;1.54;76.55
84617;BME280;74846;51.126;16.944;2024-03-06T05:05:33;100794.77;;;1.43;76.83
84617;BME280;74846;51.126;16.944;2024-03-06T05:08:18;100794.17;;;1.35;76.93
84617;BME280;74846;51.126;16.944;2024-03-06T05:11:03;100799.02;;;1.19;77.61
84617;BME280;74846;51.126;16.944;2024-03-06T05:13:48;100797.25;;;1.08;77.37
84617;BME280;74846;51.126;16.944;2024-03-06T05:16:34;100804.10;;;0.98;77.72
84617;BME280;74846;51.126;16.944;2024-03-06T05:19:18;100805.69;;;0.96;78.24
84617;BME280;74846;51.126;16.944;2024-03-06T05:22:04;100807.23;;;0.96;78.15
84617;BME280;74846;51.126;16.944;2024-03-06T05:24:49;100808.09;;;0.98;78.01
84617;BME280;74846;51.126;16.944;2024-03-06T05:27:34;100813.91;;;1.04;77.65
84617;BME280;74846;51.126;16.944;2024-03-06T05:30:18;100813.35;;;1.08;77.37
84617;BME280;74846;51.126;16.944;2024-03-06T05:33:03;100817.08;;;1.16;77.22
84617;BME280;74846;51.126;16.944;2024-03-06T05:35:47;100816.36;;;1.18;77.39
84617;BME280;74846;51.126;16.944;2024-03-06T05:38:32;100817.02;;;1.22;77.36
84617;BME280;74846;51.126;16.944;2024-03-06T05:41:17;100820.49;;;1.21;77.67
84617;BME280;74846;51.126;16.944;2024-03-06T05:44:03;100821.21;;;1.19;77.60
84617;BME280;74846;51.126;16.944;2024-03-06T05:46:48;100826.39;;;1.20;77.13
84617;BME280;74846;51.126;16.944;2024-03-06T05:49:33;100830.40;;;1.18;77.59
84617;BME280;74846;51.126;16.944;2024-03-06T05:52:19;100831.64;;;1.15;77.34
84617;BME280;74846;51.126;16.944;2024-03-06T05:55:04;100827.67;;;1.13;77.48
84617;BME280;74846;51.126;16.944;2024-03-06T05:57:50;100834.70;;;1.20;77.41
84617;BME280;74846;51.126;16.944;2024-03-06T06:00:37;100833.95;;;1.26;77.30
84617;BME280;74846;51.126;16.944;2024-03-06T06:03:07;100828.16;;;1.32;77.36
84617;BME280;74846;51.126;16.944;2024-03-06T06:05:34;100833.16;;;1.34;77.12
84617;BME280;74846;51.126;16.944;2024-03-06T06:08:03;100819.17;;;1.30;77.20
84617;BME280;74846;51.126;16.944;2024-03-06T06:10:30;100834.97;;;1.43;76.89
84617;BME280;74846;51.126;16.944;2024-03-06T06:12:56;100825.97;;;1.41;76.58
84617;BME280;74846;51.126;16.944;2024-03-06T06:15:23;100833.61;;;1.40;76.68
84617;BME280;74846;51.126;16.944;2024-03-06T06:17:50;100831.96;;;1.34;77.19
84617;BME280;74846;51.126;16.944;2024-03-06T06:20:16;100843.20;;;1.36;77.66
84617;BME280;74846;51.126;16.944;2024-03-06T06:22:44;100844.89;;;1.40;77.24
84617;BME280;74846;51.126;16.944;2024-03-06T06:25:11;100844.32;;;1.44;76.96
84617;BME280;74846;51.126;16.944;2024-03-06T06:27:38;100847.86;;;1.52;76.87
84617;BME280;74846;51.126;16.944;2024-03-06T06:30:06;100837.50;;;1.50;76.89
84617;BME280;74846;51.126;16.944;2024-03-06T06:32:38;100851.15;;;1.67;76.66
84617;BME280;74846;51.126;16.944;2024-03-06T06:35:05;100837.63;;;1.68;76.64
84617;BME280;74846;51.126;16.944;2024-03-06T06:37:32;100851.65;;;1.83;76.80
84617;BME280;74846;51.126;16.944;2024-03-06T06:40:00;100840.75;;;1.80;76.99
84617;BME280;74846;51.126;16.944;2024-03-06T06:42:29;100855.08;;;1.99;76.97
84617;BME280;74846;51.126;16.944;2024-03-06T06:44:55;100857.58;;;2.08;76.62
84617;BME280;74846;51.126;16.944;2024-03-06T06:47:22;100840.60;;;2.05;76.70
84617;BME280;74846;51.126;16.944;2024-03-06T06:49:49;100857.14;;;2.25;76.78
84617;BME280;74846;51.126;16.944;2024-03-06T06:52:16;100857.70;;;2.33;76.56
84617;BME280;74846;51.126;16.944;2024-03-06T06:54:43;100861.45;;;2.39;76.50
84617;BME280;74846;51.126;16.944;2024-03-06T06:57:10;100857.97;;;2.40;76.68
84617;BME280;74846;51.126;16.944;2024-03-06T06:59:36;100856.61;;;2.50;77.00
84617;BME280;74846;51.126;16.944;2024-03-06T07:02:03;100867.37;;;2.61;77.47
84617;BME280;74846;51.126;16.944;2024-03-06T07:04:30;100867.98;;;2.66;77.18
84617;BME280;74846;51.126;16.944;2024-03-06T07:06:57;100869.87;;;2.79;77.12
84617;BME280;74846;51.126;16.944;2024-03-06T07:09:24;100870.18;;;2.90;77.00
84617;BME280;74846;51.126;16.944;2024-03-06T07:11:51;100874.30;;;3.04;76.89
84617;BME280;74846;51.126;16.944;2024-03-06T07:14:18;100872.95;;;3.11;76.74
84617;BME280;74846;51.126;16.944;2024-03-06T07:16:45;100876.06;;;3.22;76.48
84617;BME280;74846;51.126;16.944;2024-03-06T07:19:12;100875.73;;;3.31;76.01
84617;BME280;74846;51.126;16.944;2024-03-06T07:21:39;100879.91;;;3.40;75.71
84617;BME280;74846;51.126;16.944;2024-03-06T07:24:06;100884.31;;;3.46;75.47
84617;BME280;74846;51.126;16.944;2024-03-06T07:26:33;100882.81;;;3.51;75.59
84617;BME280;74846;51.126;16.944;2024-03-06T07:29:01;100879.88;;;3.60;75.29
84617;BME280;74846;51.126;16.944;2024-03-06T07:31:28;100871.67;;;3.61;75.45
84617;BME280;74846;51.126;16.944;2024-03-06T07:33:55;100890.70;;;3.76;75.26
84617;BME280;74846;51.126;16.944;2024-03-06T07:36:22;100872.52;;;3.71;75.49
84617;BME280;74846;51.126;16.944;2024-03-06T07:38:48;100887.48;;;3.88;75.37
84617;BME280;74846;51.126;16.944;2024-03-06T07:41:15;100891.69;;;3.95;75.42
84617;BME280;74846;51.126;16.944;2024-03-06T07:43:42;100895.02;;;4.10;75.41
84617;BME280;74846;51.126;16.944;2024-03-06T07:46:09;100900.96;;;4.26;74.96
84617;BME280;74846;51.126;16.944;2024-03-06T07:48:37;100898.29;;;4.36;74.40
84617;BME280;74846;51.126;16.944;2024-03-06T07:51:04;100888.66;;;4.38;74.39
84617;BME280;74846;51.126;16.944;2024-03-06T07:53:31;100891.48;;;4.52;74.30
84617;BME280;74846;51.126;16.944;2024-03-06T07:55:57;100897.48;;;4.64;73.92
84617;BME280;74846;51.126;16.944;2024-03-06T07:58:24;100891.73;;;4.71;73.85
84617;BME280;74846;51.126;16.944;2024-03-06T08:00:51;100893.50;;;4.84;73.89
84617;BME280;74846;51.126;16.944;2024-03-06T08:03:22;100900.63;;;4.99;73.69
84617;BME280;74846;51.126;16.944;2024-03-06T08:05:52;100899.89;;;5.08;72.15
84617;BME280;74846;51.126;16.944;2024-03-06T08:08:20;100891.77;;;4.98;72.54
84617;BME280;74846;51.126;16.944;2024-03-06T08:10:47;100900.38;;;5.10;72.83
84617;BME280;74846;51.126;16.944;2024-03-06T08:13:14;100893.20;;;5.11;72.25
84617;BME280;74846;51.126;16.944;2024-03-06T08:15:40;100892.23;;;5.08;71.79
84617;BME280;74846;51.126;16.944;2024-03-06T08:18:10;100908.37;;;5.24;71.72
84617;BME280;74846;51.126;16.944;2024-03-06T08:20:37;100908.86;;;5.32;71.98
84617;BME280;74846;51.126;16.944;2024-03-06T08:23:04;100909.75;;;5.45;72.31
84617;BME280;74846;51.126;16.944;2024-03-06T08:25:31;100911.70;;;5.63;71.96
84617;BME280;74846;51.126;16.944;2024-03-06T08:27:59;100909.00;;;5.72;71.09
84617;BME280;74846;51.126;16.944;2024-03-06T08:30:26;100908.77;;;5.75;71.00
84617;BME280;74846;51.126;16.944;2024-03-06T08:32:52;100906.60;;;5.84;71.40
84617;BME280;74846;51.126;16.944;2024-03-06T08:35:19;100906.56;;;5.98;71.29
84617;BME280;74846;51.126;16.944;2024-03-06T08:37:48;100906.63;;;6.08;69.92
84617;BME280;74846;51.126;16.944;2024-03-06T08:40:16;100909.77;;;6.08;68.58
84617;BME280;74846;51.126;16.944;2024-03-06T08:42:44;100906.11;;;6.07;69.55
84617;BME280;74846;51.126;16.944;2024-03-06T08:45:11;100910.52;;;6.18;67.72
84617;BME280;74846;51.126;16.944;2024-03-06T08:47:38;100913.05;;;6.15;68.43
84617;BME280;74846;51.126;16.944;2024-03-06T08:50:05;100912.69;;;6.22;67.76
84617;BME280;74846;51.126;16.944;2024-03-06T08:52:32;100912.27;;;6.24;67.25
84617;BME280;74846;51.126;16.944;2024-03-06T08:54:59;100910.58;;;6.22;67.90
84617;BME280;74846;51.126;16.944;2024-03-06T08:57:26;100905.66;;;6.34;69.00
84617;BME280;74846;51.126;16.944;2024-03-06T08:59:57;100906.16;;;6.58;66.59
84617;BME280;74846;51.126;16.944;2024-03-06T09:02:24;100909.08;;;6.71;64.98
84617;BME280;74846;51.126;16.944;2024-03-06T09:04:52;100910.73;;;6.74;64.60
84617;BME280;74846;51.126;16.944;2024-03-06T09:07:19;100914.60;;;6.73;64.41
84617;BME280;74846;51.126;16.944;2024-03-06T09:09:50;100908.51;;;6.72;65.04
84617;BME280;74846;51.126;16.944;2024-03-06T09:12:18;100908.39;;;6.81;63.94
84617;BME280;74846;51.126;16.944;2024-03-06T09:14:45;100919.58;;;6.92;63.35
84617;BME280;74846;51.126;16.944;2024-03-06T09:17:12;100917.84;;;6.91;63.33
84617;BME280;74846;51.126;16.944;2024-03-06T09:19:42;100914.74;;;6.90;61.74
84617;BME280;74846;51.126;16.944;2024-03-06T09:22:25;100914.50;;;6.87;61.43
84617;BME280;74846;51.126;16.944;2024-03-06T09:24:52;100916.63;;;6.97;60.54
84617;BME280;74846;51.126;16.944;2024-03-06T09:27:19;100923.52;;;6.95;59.91
84617;BME280;74846;51.126;16.944;2024-03-06T09:29:45;100919.09;;;6.80;60.67
84617;BME280;74846;51.126;16.944;2024-03-06T09:32:13;100918.88;;;6.76;59.80
84617;BME280;74846;51.126;16.944;2024-03-06T09:34:45;100918.04;;;6.85;61.09
84617;BME280;74846;51.126;16.944;2024-03-06T09:37:12;100916.20;;;7.09;60.33
84617;BME280;74846;51.126;16.944;2024-03-06T09:39:39;100914.06;;;7.21;60.74
84617;BME280;74846;51.126;16.944;2024-03-06T09:42:05;100904.36;;;7.44;62.08
84617;BME280;74846;51.126;16.944;2024-03-06T09:44:33;100911.05;;;7.82;60.32
84617;BME280;74846;51.126;16.944;2024-03-06T09:47:02;100909.77;;;7.98;57.69
84617;BME280;74846;51.126;16.944;2024-03-06T09:49:32;100911.19;;;7.97;56.03
84617;BME280;74846;51.126;16.944;2024-03-06T09:52:02;100912.80;;;7.72;52.72
84617;BME280;74846;51.126;16.944;2024-03-06T09:54:30;100916.95;;;7.54;53.87
84617;BME280;74846;51.126;16.944;2024-03-06T09:56:57;100918.78;;;7.36;54.32
84617;BME280;74846;51.126;16.944;2024-03-06T09:59:25;100917.16;;;7.23;55.04
84617;BME280;74846;51.126;16.944;2024-03-06T10:01:56;100914.41;;;7.31;55.33
84617;BME280;74846;51.126;16.944;2024-03-06T10:04:27;100914.87;;;7.38;55.20
84617;BME280;74846;51.126;16.944;2024-03-06T10:06:55;100917.45;;;7.50;55.87
84617;BME280;74846;51.126;16.944;2024-03-06T10:09:23;100914.21;;;7.77;55.72
84617;BME280;74846;51.126;16.944;2024-03-06T10:11:50;100916.03;;;7.94;55.35
84617;BME280;74846;51.126;16.944;2024-03-06T10:14:20;100918.51;;;8.03;56.26
84617;BME280;74846;51.126;16.944;2024-03-06T10:16:56;100915.55;;;8.26;55.21
84617;BME280;74846;51.126;16.944;2024-03-06T10:19:25;100912.05;;;8.49;53.91
84617;BME280;74846;51.126;16.944;2024-03-06T10:21:54;100918.27;;;8.60;52.70
84617;BME280;74846;51.126;16.944;2024-03-06T10:24:23;100916.88;;;8.65;50.11
84617;BME280;74846;51.126;16.944;2024-03-06T10:26:51;100921.20;;;8.48;50.52
84617;BME280;74846;51.126;16.944;2024-03-06T10:29:21;100923.67;;;8.35;50.31
84617;BME280;74846;51.126;16.944;2024-03-06T10:31:49;100924.58;;;8.19;51.55
84617;BME280;74846;51.126;16.944;2024-03-06T10:34:17;100920.91;;;8.23;50.05
84617;BME280;74846;51.126;16.944;2024-03-06T10:36:44;100928.12;;;8.04;51.08
84617;BME280;74846;51.126;16.944;2024-03-06T10:39:12;100927.39;;;7.95;51.66
84617;BME280;74846;51.126;16.944;2024-03-06T10:41:42;100928.90;;;8.01;52.34
84617;BME280;74846;51.126;16.944;2024-03-06T10:44:12;100922.59;;;8.11;52.95
84617;BME280;74846;51.126;16.944;2024-03-06T10:46:43;100927.38;;;8.43;53.24
84617;BME280;74846;51.126;16.944;2024-03-06T10:49:14;100929.27;;;8.66;52.79
84617;BME280;74846;51.126;16.944;2024-03-06T10:51:42;100928.23;;;8.74;52.95
84617;BME280;74846;51.126;16.944;2024-03-06T10:54:11;100932.52;;;8.64;53.80
84617;BME280;74846;51.126;16.944;2024-03-06T10:56:40;100927.41;;;8.47;54.73
84617;BME280;74846;51.126;16.944;2024-03-06T10:59:13;100930.18;;;8.43;55.45
84617;BME280;74846;51.126;16.944;2024-03-06T11:01:44;100930.55;;;8.56;55.57
84617;BME280;74846;51.126;16.944;2024-03-06T11:04:13;100932.27;;;8.53;54.68
84617;BME280;74846;51.126;16.944;2024-03-06T11:06:41;100933.20;;;8.37;55.03
84617;BME280;74846;51.126;16.944;2024-03-06T11:09:08;100932.79;;;8.29;54.61
84617;BME280;74846;51.126;16.944;2024-03-06T11:11:49;100941.31;;;8.16;54.47
84617;BME280;74846;51.126;16.944;2024-03-06T11:14:16;100940.27;;;7.92;54.60
84617;BME280;74846;51.126;16.944;2024-03-06T11:17:01;100941.88;;;7.77;56.04
84617;BME280;74846;51.126;16.944;2024-03-06T11:19:29;100925.42;;;7.52;56.96
84617;BME280;74846;51.126;16.944;2024-03-06T11:21:57;100934.19;;;7.57;57.90
84617;BME280;74846;51.126;16.944;2024-03-06T11:24:31;100934.08;;;7.60;58.12
84617;BME280;74846;51.126;16.944;2024-03-06T11:27:03;100938.96;;;7.55;58.55
84617;BME280;74846;51.126;16.944;2024-03-06T11:30:03;100941.73;;;7.41;58.65
84617;BME280;74846;51.126;16.944;2024-03-06T11:32:37;100930.63;;;7.12;59.33
84617;BME280;74846;51.126;16.944;2024-03-06T11:35:05;100942.19;;;7.11;59.95
84617;BME280;74846;51.126;16.944;2024-03-06T11:37:34;100943.24;;;7.22;59.83
84617;BME280;74846;51.126;16.944;2024-03-06T11:40:03;100931.63;;;7.19;59.60
84617;BME280;74846;51.126;16.944;2024-03-06T11:42:35;100929.81;;;7.10;59.23
84617;BME280;74846;51.126;16.944;2024-03-06T11:45:13;100930.30;;;7.06;58.46
84617;BME280;74846;51.126;16.944;2024-03-06T11:47:59;100935.23;;;7.11;58.72
84617;BME280;74846;51.126;16.944;2024-03-06T11:50:28;100928.58;;;7.21;58.85
84617;BME280;74846;51.126;16.944;2024-03-06T11:52:54;100928.08;;;7.26;59.09
84617;BME280;74846;51.126;16.944;2024-03-06T11:55:22;100930.51;;;7.36;58.67
84617;BME280;74846;51.126;16.944;2024-03-06T11:57:49;100930.40;;;7.45;58.23
84617;BME280;74846;51.126;16.944;2024-03-06T12:00:16;100930.49;;;7.42;56.66
84617;BME280;74846;51.126;16.944;2024-03-06T12:02:42;100929.95;;;7.27;56.50
84617;BME280;74846;51.126;16.944;2024-03-06T12:05:09;100926.58;;;7.14;57.82
84617;BME280;74846;51.126;16.944;2024-03-06T12:07:50;100923.15;;;7.06;58.48
84617;BME280;74846;51.126;16.944;2024-03-06T12:10:17;100923.17;;;7.21;58.78
84617;BME280;74846;51.126;16.944;2024-03-06T12:12:44;100918.02;;;7.43;58.90
84617;BME280;74846;51.126;16.944;2024-03-06T12:15:15;100914.98;;;7.56;59.09
84617;BME280;74846;51.126;16.944;2024-03-06T12:17:46;100920.49;;;7.82;58.30
84617;BME280;74846;51.126;16.944;2024-03-06T12:20:13;100919.67;;;8.14;56.84
84617;BME280;74846;51.126;16.944;2024-03-06T12:22:53;100918.42;;;8.38;55.77
84617;BME280;74846;51.126;16.944;2024-03-06T12:25:24;100912.51;;;8.51;55.06
84617;BME280;74846;51.126;16.944;2024-03-06T12:27:54;100908.30;;;8.55;54.31
84617;BME280;74846;51.126;16.944;2024-03-06T12:30:21;100909.94;;;8.45;55.57
84617;BME280;74846;51.126;16.944;2024-03-06T12:32:58;100908.30;;;8.60;54.96
84617;BME280;74846;51.126;16.944;2024-03-06T12:35:26;100913.63;;;8.58;53.79
84617;BME280;74846;51.126;16.944;2024-03-06T12:37:53;100913.09;;;8.54;51.81
84617;BME280;74846;51.126;16.944;2024-03-06T12:40:20;100903.17;;;8.43;52.90
84617;BME280;74846;51.126;16.944;2024-03-06T12:42:48;100904.08;;;8.34;50.72
84617;BME280;74846;51.126;16.944;2024-03-06T12:45:16;100910.98;;;8.03;51.79
84617;BME280;74846;51.126;16.944;2024-03-06T12:47:43;100912.77;;;7.83;52.84
84617;BME280;74846;51.126;16.944;2024-03-06T12:50:12;100917.13;;;7.69;53.24
84617;BME280;74846;51.126;16.944;2024-03-06T12:52:39;100916.98;;;7.48;54.34
84617;BME280;74846;51.126;16.944;2024-03-06T12:55:06;100914.33;;;7.39;54.66
84617;BME280;74846;51.126;16.944;2024-03-06T12:57:34;100919.68;;;7.31;54.78
84617;BME280;74846;51.126;16.944;2024-03-06T13:00:01;100922.66;;;7.26;54.95